createdAt,value
2019-03-09T00:00:01.457Z,1007.54
2019-03-09T00:01:01.446Z,1007.54
2019-03-09T00:02:01.441Z,1007.51
2019-03-09T00:03:01.435Z,1007.50
2019-03-09T00:04:01.425Z,1007.49
2019-03-09T00:05:01.415Z,1007.45
2019-03-09T00:06:01.443Z,1007.40
2019-03-09T00:07:01.400Z,1007.37
2019-03-09T00:08:01.394Z,1007.35
2019-03-09T00:09:01.381Z,1007.30
2019-03-09T00:10:01.376Z,1007.26
2019-03-09T00:11:01.368Z,1007.23
2019-03-09T00:12:01.361Z,1007.20
2019-03-09T00:13:01.355Z,1007.21
2019-03-09T00:14:01.341Z,1007.18
2019-03-09T00:15:01.339Z,1007.17
2019-03-09T00:16:01.328Z,1007.11
2019-03-09T00:17:01.345Z,1007.11
2019-03-09T00:18:01.312Z,1007.03
2019-03-09T00:19:01.303Z,1007.00
2019-03-09T00:20:01.298Z,1006.98
2019-03-09T00:21:01.287Z,1006.95
2019-03-09T00:22:01.278Z,1006.90
2019-03-09T00:23:01.271Z,1006.87
2019-03-09T00:24:01.262Z,1006.87
2019-03-09T00:25:01.255Z,1006.86
2019-03-09T00:26:01.274Z,1006.87
2019-03-09T00:27:01.238Z,1006.88
2019-03-09T00:28:01.232Z,1006.90
2019-03-09T00:29:01.248Z,1006.94
2019-03-09T00:30:01.217Z,1006.95
2019-03-09T00:31:01.210Z,1006.93
2019-03-09T00:32:01.205Z,1006.98
2019-03-09T00:33:01.189Z,1006.98
2019-03-09T00:34:01.184Z,1006.94
2019-03-09T00:35:01.176Z,1006.94
2019-03-09T00:36:01.176Z,1006.93
2019-03-09T00:37:01.158Z,1006.86
2019-03-09T00:38:01.151Z,1006.87
2019-03-09T00:39:01.142Z,1006.80
2019-03-09T00:40:01.134Z,1006.82
2019-03-09T00:41:01.129Z,1006.81
2019-03-09T00:42:01.121Z,1006.80
2019-03-09T00:43:01.113Z,1006.80
2019-03-09T00:44:01.104Z,1006.81
2019-03-09T00:45:01.095Z,1006.81
2019-03-09T00:46:01.086Z,1006.76
2019-03-09T00:47:01.077Z,1006.76
2019-03-09T00:48:01.071Z,1006.73
2019-03-09T00:49:01.057Z,1006.70
2019-03-09T00:50:01.054Z,1006.75
2019-03-09T00:51:01.047Z,1006.78
2019-03-09T00:52:01.035Z,1006.77
2019-03-09T00:53:01.032Z,1006.74
2019-03-09T00:54:01.025Z,1006.76
2019-03-09T00:55:01.014Z,1006.73
2019-03-09T00:56:01.042Z,1006.76
2019-03-09T00:57:00.996Z,1006.77
2019-03-09T00:58:00.993Z,1006.75
2019-03-09T00:59:00.981Z,1006.74
2019-03-09T01:00:00.972Z,1006.72
2019-03-09T01:01:00.966Z,1006.74
2019-03-09T01:02:00.956Z,1006.76
2019-03-09T01:03:00.954Z,1006.69
2019-03-09T01:04:00.942Z,1006.65
2019-03-09T01:05:00.932Z,1006.66
2019-03-09T01:06:00.924Z,1006.63
2019-03-09T01:07:00.915Z,1006.60
2019-03-09T01:08:00.909Z,1006.58
2019-03-09T01:09:00.904Z,1006.52
2019-03-09T01:10:00.891Z,1006.52
2019-03-09T01:11:00.884Z,1006.51
2019-03-09T01:12:00.877Z,1006.39
2019-03-09T01:13:00.871Z,1006.42
2019-03-09T01:14:00.862Z,1006.33
2019-03-09T01:15:00.851Z,1006.33
2019-03-09T01:16:00.841Z,1006.32
2019-03-09T01:17:00.838Z,1006.27
2019-03-09T01:18:00.827Z,1006.27
2019-03-09T01:19:00.821Z,1006.23
2019-03-09T01:20:00.813Z,1006.25
2019-03-09T01:21:00.806Z,1006.24
2019-03-09T01:22:00.797Z,1006.22
2019-03-09T01:23:00.790Z,1006.19
2019-03-09T01:24:00.782Z,1006.22
2019-03-09T01:25:00.772Z,1006.22
2019-03-09T01:26:00.762Z,1006.17
2019-03-09T01:27:00.756Z,1006.19
2019-03-09T01:28:00.748Z,1006.14
2019-03-09T01:29:00.737Z,1006.07
2019-03-09T01:30:00.729Z,1006.07
2019-03-09T01:31:00.723Z,1006.03
2019-03-09T01:32:00.719Z,1005.97
2019-03-09T01:33:00.706Z,1005.96
2019-03-09T01:34:00.698Z,1005.93
2019-03-09T01:35:00.688Z,1005.96
2019-03-09T01:36:00.684Z,1005.94
2019-03-09T01:37:00.674Z,1005.94
2019-03-09T01:38:00.665Z,1005.94
2019-03-09T01:39:00.658Z,1005.87
2019-03-09T01:40:00.689Z,1005.80
2019-03-09T01:41:00.641Z,1005.80
2019-03-09T01:42:00.638Z,1005.82
2019-03-09T01:43:00.627Z,1005.77
2019-03-09T01:44:00.623Z,1005.78
2019-03-09T01:45:00.610Z,1005.75
2019-03-09T01:46:00.662Z,1005.70
2019-03-09T01:47:00.597Z,1005.72
2019-03-09T01:48:00.583Z,1005.68
2019-03-09T01:49:00.578Z,1005.66
2019-03-09T01:50:00.569Z,1005.63
2019-03-09T01:51:00.565Z,1005.65
2019-03-09T01:52:00.555Z,1005.65
2019-03-09T01:53:00.545Z,1005.62
2019-03-09T01:54:00.538Z,1005.53
2019-03-09T01:55:00.542Z,1005.56
2019-03-09T01:56:00.516Z,1005.56
2019-03-09T01:57:00.515Z,1005.51
2019-03-09T01:58:00.509Z,1005.51
2019-03-09T01:59:00.497Z,1005.53
2019-03-09T02:00:00.494Z,1005.47
2019-03-09T02:01:00.479Z,1005.47
2019-03-09T02:02:00.478Z,1005.44
2019-03-09T02:03:00.469Z,1005.42
2019-03-09T02:04:00.457Z,1005.39
2019-03-09T02:05:00.449Z,1005.38
2019-03-09T02:06:00.440Z,1005.36
2019-03-09T02:07:00.433Z,1005.35
2019-03-09T02:08:00.431Z,1005.33
2019-03-09T02:09:00.420Z,1005.34
2019-03-09T02:10:00.427Z,1005.32
2019-03-09T02:11:00.399Z,1005.33
2019-03-09T02:12:00.392Z,1005.30
2019-03-09T02:13:00.384Z,1005.29
2019-03-09T02:14:00.377Z,1005.21
2019-03-09T02:15:00.378Z,1005.25
2019-03-09T02:16:00.360Z,1005.17
2019-03-09T02:17:00.350Z,1005.13
2019-03-09T02:18:00.342Z,1005.13
2019-03-09T02:19:00.335Z,1005.11
2019-03-09T02:20:00.400Z,1005.09
2019-03-09T02:21:00.318Z,1005.07
2019-03-09T02:22:00.315Z,1005.06
2019-03-09T02:23:00.304Z,1005.06
2019-03-09T02:24:00.295Z,1005.04
2019-03-09T02:25:00.394Z,1005.00
2019-03-09T02:26:00.279Z,1004.97
2019-03-09T02:27:00.272Z,1004.94
2019-03-09T02:28:00.299Z,1004.94
2019-03-09T02:29:01.078Z,1004.92
2019-03-09T02:30:00.519Z,1004.84
2019-03-09T02:31:00.264Z,1004.79
2019-03-09T02:32:00.229Z,1004.81
2019-03-09T02:33:00.226Z,1004.78
2019-03-09T02:34:00.219Z,1004.79
2019-03-09T02:35:00.426Z,1004.78
2019-03-09T02:36:00.204Z,1004.72
2019-03-09T02:37:00.194Z,1004.69
2019-03-09T02:38:00.237Z,1004.71
2019-03-09T02:39:00.176Z,1004.69
2019-03-09T02:40:00.488Z,1004.69
2019-03-09T02:41:00.160Z,1004.69
2019-03-09T02:42:00.164Z,1004.66
2019-03-09T02:43:00.143Z,1004.70
2019-03-09T02:44:00.134Z,1004.72
2019-03-09T02:45:00.417Z,1004.69
2019-03-09T02:46:00.122Z,1004.76
2019-03-09T02:47:00.116Z,1004.73
2019-03-09T02:48:00.103Z,1004.71
2019-03-09T02:49:00.097Z,1004.70
2019-03-09T02:50:00.362Z,1004.64
2019-03-09T02:51:00.078Z,1004.56
2019-03-09T02:52:00.074Z,1004.53
2019-03-09T02:53:00.070Z,1004.52
2019-03-09T02:54:00.053Z,1004.47
2019-03-09T02:55:00.045Z,1004.42
2019-03-09T02:56:00.037Z,1004.35
2019-03-09T02:57:00.054Z,1004.31
2019-03-09T02:58:00.023Z,1004.24
2019-03-09T02:59:00.017Z,1004.25
2019-03-09T03:00:01.268Z,1004.27
2019-03-09T03:01:00.012Z,1004.23
2019-03-09T03:01:59.998Z,1004.21
2019-03-09T03:03:00.036Z,1004.14
2019-03-09T03:03:59.983Z,1004.15
2019-03-09T03:04:59.974Z,1004.10
2019-03-09T03:05:59.956Z,1004.04
2019-03-09T03:06:59.949Z,1004.10
2019-03-09T03:07:59.947Z,1004.09
2019-03-09T03:08:59.940Z,1004.15
2019-03-09T03:09:59.930Z,1004.13
2019-03-09T03:10:59.916Z,1004.09
2019-03-09T03:11:59.910Z,1004.03
2019-03-09T03:12:59.900Z,1004.07
2019-03-09T03:13:59.892Z,1004.04
2019-03-09T03:14:59.895Z,1003.99
2019-03-09T03:15:59.894Z,1003.91
2019-03-09T03:16:59.871Z,1003.82
2019-03-09T03:17:59.860Z,1003.80
2019-03-09T03:18:59.853Z,1003.80
2019-03-09T03:19:59.847Z,1003.77
2019-03-09T03:20:59.838Z,1003.74
2019-03-09T03:21:59.830Z,1003.76
2019-03-09T03:22:59.823Z,1003.69
2019-03-09T03:23:59.812Z,1003.65
2019-03-09T03:24:59.805Z,1003.59
2019-03-09T03:25:59.800Z,1003.60
2019-03-09T03:26:59.794Z,1003.58
2019-03-09T03:27:59.782Z,1003.52
2019-03-09T03:28:59.773Z,1003.52
2019-03-09T03:29:59.763Z,1003.46
2019-03-09T03:30:59.866Z,1003.46
2019-03-09T03:31:59.750Z,1003.48
2019-03-09T03:32:59.741Z,1003.45
2019-03-09T03:33:59.738Z,1003.43
2019-03-09T03:34:59.725Z,1003.36
2019-03-09T03:35:59.716Z,1003.39
2019-03-09T03:36:59.709Z,1003.37
2019-03-09T03:37:59.702Z,1003.40
2019-03-09T03:38:59.694Z,1003.36
2019-03-09T03:39:59.684Z,1003.33
2019-03-09T03:40:59.680Z,1003.28
2019-03-09T03:41:59.670Z,1003.25
2019-03-09T03:42:59.663Z,1003.24
2019-03-09T03:43:59.653Z,1003.21
2019-03-09T03:44:59.644Z,1003.16
2019-03-09T03:45:59.637Z,1003.08
2019-03-09T03:46:59.631Z,1003.04
2019-03-09T03:47:59.639Z,1003.01
2019-03-09T03:48:59.612Z,1002.98
2019-03-09T03:49:59.605Z,1002.94
2019-03-09T03:50:59.597Z,1002.90
2019-03-09T03:51:59.600Z,1002.92
2019-03-09T03:52:59.621Z,1002.88
2019-03-09T03:53:59.580Z,1002.89
2019-03-09T03:54:59.574Z,1002.91
2019-03-09T03:55:59.558Z,1002.88
2019-03-09T03:56:59.550Z,1002.87
2019-03-09T03:57:59.544Z,1002.84
2019-03-09T03:58:59.536Z,1002.83
2019-03-09T03:59:59.527Z,1002.82
2019-03-09T04:00:59.519Z,1002.86
2019-03-09T04:01:59.511Z,1002.83
2019-03-09T04:02:59.505Z,1002.79
2019-03-09T04:03:59.505Z,1002.76
2019-03-09T04:04:59.487Z,1002.71
2019-03-09T04:05:59.481Z,1002.63
2019-03-09T04:06:59.470Z,1002.63
2019-03-09T04:07:59.468Z,1002.62
2019-03-09T04:08:59.454Z,1002.56
2019-03-09T04:09:59.448Z,1002.56
2019-03-09T04:10:59.439Z,1002.56
2019-03-09T04:11:59.430Z,1002.53
2019-03-09T04:12:59.422Z,1002.53
2019-03-09T04:13:59.414Z,1002.54
2019-03-09T04:14:59.410Z,1002.53
2019-03-09T04:15:59.404Z,1002.43
2019-03-09T04:16:59.396Z,1002.42
2019-03-09T04:17:59.386Z,1002.42
2019-03-09T04:18:59.376Z,1002.43
2019-03-09T04:19:59.373Z,1002.37
2019-03-09T04:21:01.865Z,1002.38
2019-03-09T04:21:59.350Z,1002.35
2019-03-09T04:22:59.342Z,1002.36
2019-03-09T04:23:59.336Z,1002.36
2019-03-09T04:24:59.327Z,1002.27
2019-03-09T04:25:59.321Z,1002.22
2019-03-09T04:26:59.312Z,1002.17
2019-03-09T04:27:59.306Z,1002.13
2019-03-09T04:28:59.297Z,1002.14
2019-03-09T04:29:59.289Z,1002.14
2019-03-09T04:30:59.279Z,1002.13
2019-03-09T04:31:59.277Z,1002.15
2019-03-09T04:32:59.265Z,1002.09
2019-03-09T04:33:59.261Z,1002.01
2019-03-09T04:34:59.248Z,1001.97
2019-03-09T04:35:59.254Z,1001.93
2019-03-09T04:36:59.235Z,1001.93
2019-03-09T04:37:59.222Z,1001.84
2019-03-09T04:38:59.224Z,1001.86
2019-03-09T04:39:59.208Z,1001.86
2019-03-09T04:40:59.205Z,1001.84
2019-03-09T04:41:59.192Z,1001.83
2019-03-09T04:42:59.184Z,1001.72
2019-03-09T04:43:59.177Z,1001.72
2019-03-09T04:44:59.169Z,1001.63
2019-03-09T04:45:59.161Z,1001.62
2019-03-09T04:46:59.155Z,1001.62
2019-03-09T04:47:59.145Z,1001.52
2019-03-09T04:48:59.137Z,1001.48
2019-03-09T04:49:59.130Z,1001.48
2019-03-09T04:50:59.124Z,1001.41
2019-03-09T04:51:59.117Z,1001.38
2019-03-09T04:52:59.103Z,1001.33
2019-03-09T04:53:59.099Z,1001.27
2019-03-09T04:54:59.088Z,1001.27
2019-03-09T04:55:59.082Z,1001.34
2019-03-09T04:56:59.076Z,1001.30
2019-03-09T04:57:59.066Z,1001.23
2019-03-09T04:58:59.056Z,1001.23
2019-03-09T04:59:59.048Z,1001.26
2019-03-09T05:00:59.043Z,1001.25
2019-03-09T05:01:59.031Z,1001.19
2019-03-09T05:02:59.024Z,1001.21
2019-03-09T05:03:59.022Z,1001.15
2019-03-09T05:04:59.034Z,1001.13
2019-03-09T05:05:59.003Z,1000.98
2019-03-09T05:06:58.995Z,1001.04
2019-03-09T05:07:58.984Z,1000.96
2019-03-09T05:08:58.977Z,1000.86
2019-03-09T05:09:58.970Z,1000.86
2019-03-09T05:10:58.962Z,1000.81
2019-03-09T05:11:58.954Z,1000.81
2019-03-09T05:12:58.945Z,1000.79
2019-03-09T05:13:58.935Z,1000.73
2019-03-09T05:14:58.931Z,1000.75
2019-03-09T05:15:58.922Z,1000.72
2019-03-09T05:16:58.915Z,1000.66
2019-03-09T05:17:58.905Z,1000.67
2019-03-09T05:18:58.895Z,1000.59
2019-03-09T05:19:58.889Z,1000.60
2019-03-09T05:20:58.882Z,1000.59
2019-03-09T05:21:58.892Z,1000.53
2019-03-09T05:22:58.864Z,1000.50
2019-03-09T05:23:58.858Z,1000.55
2019-03-09T05:24:58.849Z,1000.50
2019-03-09T05:25:58.847Z,1000.43
2019-03-09T05:26:58.832Z,1000.45
2019-03-09T05:27:58.825Z,1000.39
2019-03-09T05:28:58.818Z,1000.40
2019-03-09T05:29:58.812Z,1000.38
2019-03-09T05:30:58.800Z,1000.41
2019-03-09T05:31:58.794Z,1000.35
2019-03-09T05:32:58.790Z,1000.33
2019-03-09T05:33:58.776Z,1000.38
2019-03-09T05:34:58.769Z,1000.26
2019-03-09T05:35:58.764Z,1000.24
2019-03-09T05:36:58.756Z,1000.22
2019-03-09T05:37:58.747Z,1000.15
2019-03-09T05:38:58.738Z,1000.11
2019-03-09T05:39:58.729Z,1000.22
2019-03-09T05:40:58.721Z,1000.16
2019-03-09T05:41:58.712Z,1000.08
2019-03-09T05:42:58.705Z,1000.11
2019-03-09T05:43:58.702Z,1000.02
2019-03-09T05:44:58.690Z,1000.02
2019-03-09T05:45:58.681Z,999.98
2019-03-09T05:46:58.671Z,1000.06
2019-03-09T05:47:58.672Z,999.96
2019-03-09T05:48:58.657Z,999.88
2019-03-09T05:49:58.647Z,999.93
2019-03-09T05:50:58.641Z,999.95
2019-03-09T05:51:58.637Z,999.91
2019-03-09T05:52:58.625Z,999.91
2019-03-09T05:53:58.617Z,999.90
2019-03-09T05:54:58.608Z,999.98
2019-03-09T05:55:58.600Z,999.86
2019-03-09T05:56:58.592Z,999.87
2019-03-09T05:57:58.585Z,999.88
2019-03-09T05:58:58.577Z,999.78
2019-03-09T05:59:58.567Z,999.80
2019-03-09T06:00:58.559Z,999.86
2019-03-09T06:01:58.554Z,999.82
2019-03-09T06:02:58.546Z,999.77
2019-03-09T06:04:00.193Z,999.75
2019-03-09T06:04:58.532Z,999.74
2019-03-09T06:05:58.522Z,999.75
2019-03-09T06:06:58.518Z,999.74
2019-03-09T06:07:58.511Z,999.80
2019-03-09T06:08:58.498Z,999.72
2019-03-09T06:09:58.488Z,999.67
2019-03-09T06:10:58.484Z,999.68
2019-03-09T06:11:58.476Z,999.66
2019-03-09T06:12:58.462Z,999.67
2019-03-09T06:13:58.463Z,999.66
2019-03-09T06:14:58.447Z,999.58
2019-03-09T06:15:58.441Z,999.53
2019-03-09T06:16:58.431Z,999.52
2019-03-09T06:17:58.424Z,999.58
2019-03-09T06:18:58.420Z,999.57
2019-03-09T06:19:58.411Z,999.55
2019-03-09T06:20:58.399Z,999.60
2019-03-09T06:21:58.389Z,999.56
2019-03-09T06:22:58.384Z,999.58
2019-03-09T06:23:58.378Z,999.56
2019-03-09T06:24:58.368Z,999.51
2019-03-09T06:25:58.363Z,999.57
2019-03-09T06:26:58.354Z,999.51
2019-03-09T06:27:58.346Z,999.56
2019-03-09T06:28:58.335Z,999.56
2019-03-09T06:29:58.330Z,999.55
2019-03-09T06:30:58.321Z,999.60
2019-03-09T06:31:58.313Z,999.49
2019-03-09T06:32:58.304Z,999.57
2019-03-09T06:33:58.297Z,999.46
2019-03-09T06:34:58.289Z,999.44
2019-03-09T06:35:58.280Z,999.47
2019-03-09T06:36:58.272Z,999.43
2019-03-09T06:37:58.270Z,999.41
2019-03-09T06:38:58.255Z,999.42
2019-03-09T06:39:58.251Z,999.39
2019-03-09T06:41:02.866Z,999.41
2019-03-09T06:41:58.231Z,999.37
2019-03-09T06:42:58.226Z,999.30
2019-03-09T06:43:58.217Z,999.22
2019-03-09T06:44:58.209Z,999.31
2019-03-09T06:45:58.200Z,999.37
2019-03-09T06:46:58.193Z,999.38
2019-03-09T06:47:58.184Z,999.33
2019-03-09T06:48:58.176Z,999.31
2019-03-09T06:49:58.173Z,999.26
2019-03-09T06:50:58.161Z,999.19
2019-03-09T06:51:58.154Z,999.17
2019-03-09T06:52:58.143Z,999.11
2019-03-09T06:53:58.135Z,999.14
2019-03-09T06:54:58.127Z,999.07
2019-03-09T06:55:58.124Z,999.07
2019-03-09T06:56:58.110Z,999.14
2019-03-09T06:57:58.104Z,998.99
2019-03-09T06:58:58.095Z,998.86
2019-03-09T06:59:58.097Z,998.92
2019-03-09T07:00:58.078Z,998.85
2019-03-09T07:01:58.070Z,998.84
2019-03-09T07:02:58.063Z,998.85
2019-03-09T07:03:58.058Z,998.84
2019-03-09T07:04:58.046Z,998.90
2019-03-09T07:05:58.038Z,999.13
2019-03-09T07:06:58.030Z,999.08
2019-03-09T07:07:58.022Z,999.12
2019-03-09T07:08:58.014Z,999.10
2019-03-09T07:09:58.007Z,999.03
2019-03-09T07:10:58.000Z,999.06
2019-03-09T07:11:57.989Z,998.90
2019-03-09T07:12:57.985Z,998.93
2019-03-09T07:13:57.977Z,998.98
2019-03-09T07:14:57.968Z,998.94
2019-03-09T07:15:57.964Z,998.88
2019-03-09T07:16:57.950Z,998.83
2019-03-09T07:17:57.943Z,998.83
2019-03-09T07:18:57.934Z,998.76
2019-03-09T07:19:57.926Z,998.71
2019-03-09T07:20:57.926Z,998.74
2019-03-09T07:21:57.910Z,998.77
2019-03-09T07:22:57.904Z,998.83
2019-03-09T07:23:57.896Z,998.82
2019-03-09T07:24:57.886Z,998.94
2019-03-09T07:25:57.876Z,998.83
2019-03-09T07:26:57.871Z,998.77
2019-03-09T07:27:57.863Z,998.80
2019-03-09T07:28:57.855Z,998.73
2019-03-09T07:29:57.847Z,998.80
2019-03-09T07:30:57.835Z,998.79
2019-03-09T07:31:57.830Z,998.72
2019-03-09T07:32:57.823Z,998.68
2019-03-09T07:33:57.813Z,998.73
2019-03-09T07:34:57.806Z,998.69
2019-03-09T07:35:57.797Z,998.77
2019-03-09T07:36:57.793Z,998.77
2019-03-09T07:37:57.783Z,998.78
2019-03-09T07:38:57.778Z,998.87
2019-03-09T07:39:57.764Z,998.83
2019-03-09T07:40:57.760Z,998.83
2019-03-09T07:41:57.749Z,998.79
2019-03-09T07:42:57.743Z,998.78
2019-03-09T07:43:57.732Z,998.74
2019-03-09T07:44:57.726Z,998.62
2019-03-09T07:45:57.719Z,998.68
2019-03-09T07:46:57.709Z,998.77
2019-03-09T07:47:57.701Z,998.75
2019-03-09T07:48:57.693Z,998.76
2019-03-09T07:49:57.686Z,998.81
2019-03-09T07:50:57.678Z,998.85
2019-03-09T07:51:57.673Z,998.86
2019-03-09T07:52:57.667Z,998.85
2019-03-09T07:53:57.692Z,998.80
2019-03-09T07:54:57.645Z,998.86
2019-03-09T07:55:57.642Z,998.88
2019-03-09T07:56:57.633Z,998.88
2019-03-09T07:57:57.624Z,998.82
2019-03-09T07:58:57.613Z,998.85
2019-03-09T07:59:57.607Z,998.86
2019-03-09T08:00:57.599Z,998.86
2019-03-09T08:01:57.596Z,998.89
2019-03-09T08:02:57.584Z,998.93
2019-03-09T08:03:57.582Z,998.93
2019-03-09T08:04:57.590Z,998.99
2019-03-09T08:05:57.563Z,998.86
2019-03-09T08:06:57.566Z,999.02
2019-03-09T08:07:57.547Z,999.07
2019-03-09T08:08:57.539Z,999.06
2019-03-09T08:09:57.531Z,999.06
2019-03-09T08:10:57.520Z,999.12
2019-03-09T08:11:57.514Z,999.17
2019-03-09T08:12:57.507Z,999.19
2019-03-09T08:13:57.501Z,999.08
2019-03-09T08:14:57.493Z,999.07
2019-03-09T08:15:57.487Z,999.14
2019-03-09T08:16:57.478Z,999.05
2019-03-09T08:17:57.468Z,999.05
2019-03-09T08:18:57.466Z,999.01
2019-03-09T08:19:57.453Z,998.97
2019-03-09T08:20:57.446Z,999.14
2019-03-09T08:21:57.436Z,999.18
2019-03-09T08:22:57.429Z,999.10
2019-03-09T08:23:57.425Z,999.21
2019-03-09T08:24:57.413Z,999.19
2019-03-09T08:25:57.407Z,999.14
2019-03-09T08:26:57.398Z,999.17
2019-03-09T08:27:57.390Z,999.22
2019-03-09T08:28:57.388Z,999.30
2019-03-09T08:29:57.381Z,999.30
2019-03-09T08:30:57.371Z,999.23
2019-03-09T08:31:57.366Z,999.26
2019-03-09T08:32:57.352Z,999.26
2019-03-09T08:33:57.347Z,999.37
2019-03-09T08:34:57.342Z,999.38
2019-03-09T08:35:57.334Z,999.47
2019-03-09T08:36:57.324Z,999.40
2019-03-09T08:37:57.332Z,999.32
2019-03-09T08:38:57.326Z,999.44
2019-03-09T08:39:57.327Z,999.44
2019-03-09T08:40:57.314Z,999.45
2019-03-09T08:41:57.292Z,999.50
2019-03-09T08:42:57.285Z,999.33
2019-03-09T08:43:57.279Z,999.59
2019-03-09T08:44:57.301Z,999.57
2019-03-09T08:45:57.266Z,999.54
2019-03-09T08:46:57.256Z,999.51
2019-03-09T08:47:57.251Z,999.49
2019-03-09T08:48:57.244Z,999.47
2019-03-09T08:49:57.237Z,999.41
2019-03-09T08:50:57.238Z,999.58
2019-03-09T08:51:57.226Z,999.54
2019-03-09T08:52:57.234Z,999.66
2019-03-09T08:53:57.223Z,999.57
2019-03-09T08:54:57.234Z,999.60
2019-03-09T08:55:57.271Z,999.67
2019-03-09T08:56:57.189Z,999.62
2019-03-09T08:57:57.186Z,999.56
2019-03-09T08:58:57.174Z,999.38
2019-03-09T08:59:57.163Z,999.55
2019-03-09T09:00:57.193Z,999.44
2019-03-09T09:01:57.154Z,999.52
2019-03-09T09:02:57.151Z,999.56
2019-03-09T09:03:57.144Z,999.59
2019-03-09T09:04:57.135Z,999.53
2019-03-09T09:05:57.129Z,999.50
2019-03-09T09:06:57.123Z,999.55
2019-03-09T09:07:57.120Z,999.59
2019-03-09T09:08:57.110Z,999.63
2019-03-09T09:09:57.110Z,999.59
2019-03-09T09:10:57.093Z,999.62
2019-03-09T09:11:57.086Z,999.63
2019-03-09T09:12:57.092Z,999.59
2019-03-09T09:13:57.070Z,999.66
2019-03-09T09:14:57.065Z,999.68
2019-03-09T09:15:57.056Z,999.53
2019-03-09T09:16:57.055Z,999.57
2019-03-09T09:17:57.048Z,999.58
2019-03-09T09:18:57.041Z,999.65
2019-03-09T09:19:57.032Z,999.60
2019-03-09T09:20:57.030Z,999.64
2019-03-09T09:21:57.017Z,999.73
2019-03-09T09:22:57.019Z,999.76
2019-03-09T09:23:57.005Z,999.80
2019-03-09T09:24:57.003Z,999.73
2019-03-09T09:25:56.993Z,999.93
2019-03-09T09:26:56.987Z,999.89
2019-03-09T09:27:56.979Z,999.88
2019-03-09T09:28:56.970Z,999.86
2019-03-09T09:29:56.969Z,999.99
2019-03-09T09:30:56.961Z,999.96
2019-03-09T09:31:56.956Z,999.82
2019-03-09T09:32:56.950Z,999.89
2019-03-09T09:33:58.477Z,999.90
2019-03-09T09:34:56.935Z,999.90
2019-03-09T09:35:56.932Z,999.97
2019-03-09T09:36:56.924Z,999.91
2019-03-09T09:37:56.917Z,1000.00
2019-03-09T09:38:56.915Z,1000.12
2019-03-09T09:39:56.907Z,999.96
2019-03-09T09:40:56.900Z,1000.01
2019-03-09T09:41:56.894Z,1000.04
2019-03-09T09:42:56.887Z,1000.00
2019-03-09T09:43:56.883Z,1000.05
2019-03-09T09:44:56.875Z,1000.02
2019-03-09T09:45:56.872Z,1000.04
2019-03-09T09:46:56.867Z,1000.05
2019-03-09T09:47:56.858Z,1000.08
2019-03-09T09:48:56.853Z,1000.14
2019-03-09T09:49:56.851Z,999.97
2019-03-09T09:50:56.844Z,1000.05
2019-03-09T09:51:56.842Z,999.94
2019-03-09T09:52:56.847Z,999.90
2019-03-09T09:53:56.828Z,999.89
2019-03-09T09:54:56.819Z,999.97
2019-03-09T09:55:56.820Z,1000.01
2019-03-09T09:56:56.806Z,999.84
2019-03-09T09:57:56.807Z,999.83
2019-03-09T09:58:56.801Z,999.99
2019-03-09T09:59:56.792Z,1000.02
2019-03-09T10:00:56.793Z,1000.09
2019-03-09T10:01:56.777Z,1000.12
2019-03-09T10:02:56.772Z,999.90
2019-03-09T10:03:56.767Z,999.98
2019-03-09T10:04:56.766Z,1000.11
2019-03-09T10:05:56.755Z,1000.06
2019-03-09T10:06:56.751Z,1000.13
2019-03-09T10:07:56.749Z,1000.04
2019-03-09T10:08:56.738Z,1000.11
2019-03-09T10:09:56.732Z,1000.12
2019-03-09T10:10:56.731Z,1000.16
2019-03-09T10:11:56.725Z,1000.18
2019-03-09T10:12:56.719Z,1000.11
2019-03-09T10:13:56.709Z,1000.12
2019-03-09T10:14:56.707Z,1000.14
2019-03-09T10:15:56.700Z,1000.24
2019-03-09T10:16:56.687Z,1000.21
2019-03-09T10:17:56.688Z,1000.18
2019-03-09T10:18:56.682Z,1000.37
2019-03-09T10:19:56.684Z,1000.42
2019-03-09T10:20:56.671Z,1000.39
2019-03-09T10:21:56.667Z,1000.43
2019-03-09T10:23:04.264Z,1000.37
2019-03-09T10:23:56.655Z,1000.53
2019-03-09T10:24:56.646Z,1000.42
2019-03-09T10:25:56.641Z,1000.40
2019-03-09T10:26:56.634Z,1000.39
2019-03-09T10:27:56.628Z,1000.33
2019-03-09T10:28:56.624Z,1000.51
2019-03-09T10:29:56.616Z,1000.49
2019-03-09T10:30:56.611Z,1000.59
2019-03-09T10:31:56.605Z,1000.88
2019-03-09T10:32:56.597Z,1000.50
2019-03-09T10:33:56.592Z,1000.59
2019-03-09T10:34:56.587Z,1000.54
2019-03-09T10:35:56.582Z,1000.58
2019-03-09T10:36:56.582Z,1000.66
2019-03-09T10:37:56.568Z,1000.63
2019-03-09T10:38:56.559Z,1000.75
2019-03-09T10:39:56.558Z,1000.63
2019-03-09T10:40:56.554Z,1000.69
2019-03-09T10:41:56.546Z,1000.69
2019-03-09T10:42:56.543Z,1000.62
2019-03-09T10:43:56.539Z,1000.69
2019-03-09T10:44:56.528Z,1000.70
2019-03-09T10:45:56.522Z,1000.65
2019-03-09T10:46:56.517Z,1000.69
2019-03-09T10:47:56.516Z,1000.74
2019-03-09T10:48:56.503Z,1000.75
2019-03-09T10:49:56.502Z,1000.85
2019-03-09T10:50:56.494Z,1000.69
2019-03-09T10:51:56.489Z,1000.76
2019-03-09T10:52:56.484Z,1000.70
2019-03-09T10:53:56.477Z,1000.81
2019-03-09T10:54:56.473Z,1000.72
2019-03-09T10:55:56.465Z,1000.82
2019-03-09T10:56:56.459Z,1000.80
2019-03-09T10:57:56.457Z,1000.66
2019-03-09T10:58:56.451Z,1000.82
2019-03-09T10:59:56.442Z,1000.79
2019-03-09T11:00:56.439Z,1000.78
2019-03-09T11:01:56.433Z,1000.69
2019-03-09T11:02:56.426Z,1000.65
2019-03-09T11:03:56.422Z,1000.82
2019-03-09T11:04:56.420Z,1000.68
2019-03-09T11:05:56.409Z,1000.73
2019-03-09T11:06:56.402Z,1000.65
2019-03-09T11:07:56.400Z,1000.73
2019-03-09T11:08:56.391Z,1000.76
2019-03-09T11:09:56.384Z,1000.69
2019-03-09T11:10:56.383Z,1000.71
2019-03-09T11:11:56.373Z,1000.72
2019-03-09T11:12:56.369Z,1000.69
2019-03-09T11:13:56.365Z,1000.73
2019-03-09T11:14:56.360Z,1000.61
2019-03-09T11:15:56.355Z,1000.58
2019-03-09T11:16:56.348Z,1000.53
2019-03-09T11:17:56.342Z,1000.64
2019-03-09T11:18:56.335Z,1000.69
2019-03-09T11:19:56.337Z,1000.55
2019-03-09T11:20:56.323Z,1000.66
2019-03-09T11:21:56.320Z,1000.44
2019-03-09T11:22:56.311Z,1000.62
2019-03-09T11:23:56.309Z,1000.72
2019-03-09T11:25:03.303Z,1000.67
2019-03-09T11:25:56.299Z,1000.70
2019-03-09T11:26:56.291Z,1000.66
2019-03-09T11:27:56.284Z,1000.74
2019-03-09T11:28:56.277Z,1000.59
2019-03-09T11:29:56.263Z,1000.62
2019-03-09T11:30:56.269Z,1000.73
2019-03-09T11:31:56.259Z,1000.63
2019-03-09T11:32:56.258Z,1000.68
2019-03-09T11:33:56.255Z,1000.74
2019-03-09T11:34:56.246Z,1000.72
2019-03-09T11:35:56.243Z,1000.73
2019-03-09T11:36:56.237Z,1000.83
2019-03-09T11:37:56.233Z,1000.69
2019-03-09T11:38:56.226Z,1000.69
2019-03-09T11:39:56.226Z,1000.65
2019-03-09T11:40:58.551Z,1000.67
2019-03-09T11:41:56.208Z,1000.62
2019-03-09T11:42:56.202Z,1000.69
2019-03-09T11:43:56.198Z,1000.76
2019-03-09T11:44:56.193Z,1000.76
2019-03-09T11:45:56.189Z,1000.77
2019-03-09T11:46:56.185Z,1000.54
2019-03-09T11:47:56.177Z,1000.74
2019-03-09T11:48:56.169Z,1000.86
2019-03-09T11:49:56.168Z,1000.79
2019-03-09T11:50:56.161Z,1000.86
2019-03-09T11:51:56.158Z,1000.90
2019-03-09T11:52:56.152Z,1000.79
2019-03-09T11:53:56.146Z,1000.86
2019-03-09T11:54:56.176Z,1000.78
2019-03-09T11:55:56.134Z,1000.72
2019-03-09T11:56:56.127Z,1000.76
2019-03-09T11:57:56.123Z,1000.76
2019-03-09T11:58:56.124Z,1000.71
2019-03-09T11:59:56.114Z,1000.85
2019-03-09T12:00:56.107Z,1000.89
2019-03-09T12:01:56.104Z,1000.70
2019-03-09T12:02:56.097Z,1000.85
2019-03-09T12:03:56.093Z,1000.74
2019-03-09T12:04:56.088Z,1000.74
2019-03-09T12:05:56.085Z,1000.81
2019-03-09T12:06:56.074Z,1000.77
2019-03-09T12:07:56.070Z,1000.65
2019-03-09T12:08:56.064Z,1000.70
2019-03-09T12:09:56.125Z,1000.74
2019-03-09T12:10:56.052Z,1000.76
2019-03-09T12:11:56.048Z,1000.69
2019-03-09T12:12:56.043Z,1000.78